Time;durP1;ratioP1;P1;durP2;ratioP2;P2;SDS_P1;SDS_P2;PMS_P1;PMS_P2;Temp;Humidity;BMP_temperature;BMP_pressure;BME280_temperature;BME280_humidity;BME280_pressure;Samples;Min_cycle;Max_cycle;Signal;HPM_P1;HPM_P2
2022/07/19 00:00:32;;;;;;;4.47;3.80;;;27.90;44.80;;;;;;5027614;28;20257;-77
2022/07/19 00:02:58;;;;;;;4.30;3.90;;;27.80;44.80;;;;;;5025978;28;20204;-77
2022/07/19 00:05:23;;;;;;;4.13;3.83;;;27.80;45.00;;;;;;5028233;28;20192;-78
2022/07/19 00:07:49;;;;;;;5.80;3.80;;;27.80;45.00;;;;;;5025738;28;20204;-79
2022/07/19 00:10:17;;;;;;;6.20;4.50;;;27.70;45.30;;;;;;5025588;28;20183;-78
2022/07/19 00:12:43;;;;;;;7.00;4.30;;;27.70;45.20;;;;;;5032248;28;20196;-78
2022/07/19 00:15:11;;;;;;;5.73;4.20;;;27.70;45.20;;;;;;5039982;28;20474;-78
2022/07/19 00:17:46;;;;;;;4.37;3.97;;;27.70;45.10;;;;;;5026168;28;20488;-78
2022/07/19 00:20:14;;;;;;;4.17;3.73;;;27.70;45.20;;;;;;5028738;28;20442;-79
2022/07/19 00:22:40;;;;;;;8.63;4.50;;;27.60;45.30;;;;;;5022953;28;20435;-79
2022/07/19 00:25:06;;;;;;;9.37;4.50;;;27.60;45.40;;;;;;5026990;28;20435;-78
2022/07/19 00:27:32;;;;;;;6.00;4.67;;;27.50;45.60;;;;;;5029908;28;20451;-77
2022/07/19 00:29:58;;;;;;;9.03;4.50;;;27.50;45.90;;;;;;5027884;28;20435;-78
2022/07/19 00:32:24;;;;;;;9.93;5.37;;;27.50;46.10;;;;;;5026526;28;20430;-78
2022/07/19 00:34:49;;;;;;;6.37;4.57;;;27.50;46.50;;;;;;5022687;28;20267;-78
2022/07/19 00:37:15;;;;;;;4.80;4.17;;;27.40;46.60;;;;;;5027080;28;20254;-77
2022/07/19 00:39:41;;;;;;;8.73;4.30;;;27.40;46.60;;;;;;5024457;28;20196;-78
2022/07/19 00:42:06;;;;;;;5.63;4.33;;;27.30;46.50;;;;;;5027379;28;20213;-78
2022/07/19 00:44:32;;;;;;;4.83;4.40;;;27.30;46.60;;;;;;5032040;28;20416;-78
2022/07/19 00:46:58;;;;;;;10.47;4.80;;;27.20;46.80;;;;;;5022541;28;20201;-77
2022/07/19 00:49:24;;;;;;;4.50;4.10;;;27.20;46.90;;;;;;5024593;28;20195;-77
2022/07/19 00:51:54;;;;;;;4.63;4.10;;;27.20;46.90;;;;;;5025988;28;20455;-79
2022/07/19 00:54:21;;;;;;;5.70;5.07;;;27.10;47.50;;;;;;5026950;28;21118;-77
2022/07/19 00:56:49;;;;;;;4.47;4.07;;;27.00;47.10;;;;;;5023309;28;21244;-77
2022/07/19 00:59:15;;;;;;;6.77;4.50;;;27.00;47.10;;;;;;5026948;28;20430;-78
2022/07/19 01:01:41;;;;;;;4.90;4.03;;;26.90;47.00;;;;;;5027318;28;20543;-78
2022/07/19 01:04:07;;;;;;;4.33;4.03;;;26.90;47.10;;;;;;5024412;28;20505;-78
2022/07/19 01:06:33;;;;;;;5.80;4.23;;;26.90;47.30;;;;;;5021867;28;20425;-78
2022/07/19 01:08:59;;;;;;;5.33;4.73;;;26.80;47.30;;;;;;5030108;28;20427;-78
2022/07/19 01:11:25;;;;;;;5.23;4.47;;;26.80;47.40;;;;;;5027960;28;20359;-79
2022/07/19 01:13:50;;;;;;;6.00;4.07;;;26.80;47.50;;;;;;5025437;28;20176;-77
2022/07/19 01:16:16;;;;;;;5.10;4.10;;;26.70;47.60;;;;;;5031007;28;20427;-77
2022/07/19 01:18:42;;;;;;;4.93;4.40;;;26.70;47.60;;;;;;5026533;28;20191;-78
2022/07/19 01:21:22;;;;;;;6.20;4.20;;;26.60;47.70;;;;;;5028410;28;20462;-79
2022/07/19 01:23:48;;;;;;;4.70;4.30;;;26.60;47.70;;;;;;5024633;28;20200;-78
2022/07/19 01:26:15;;;;;;;4.60;3.83;;;26.50;47.80;;;;;;5021468;28;20427;-79
2022/07/19 01:28:40;;;;;;;4.63;4.10;;;26.50;47.80;;;;;;5029213;28;20536;-78
2022/07/19 01:31:06;;;;;;;4.10;3.80;;;26.50;47.90;;;;;;5016007;28;20452;-79
2022/07/19 01:33:31;;;;;;;4.40;4.00;;;26.40;48.00;;;;;;5028323;28;20176;-78
2022/07/19 01:35:57;;;;;;;4.60;4.20;;;26.40;48.10;;;;;;5026631;28;20180;-78
2022/07/19 01:38:23;;;;;;;4.57;4.10;;;26.40;48.10;;;;;;5027172;28;20191;-77
2022/07/19 01:40:48;;;;;;;4.60;4.20;;;26.30;48.00;;;;;;5023448;28;20191;-78
2022/07/19 01:43:14;;;;;;;4.63;4.23;;;26.30;48.00;;;;;;5029744;28;20788;-78
2022/07/19 01:45:39;;;;;;;10.77;4.40;;;26.30;48.60;;;;;;5027407;28;20189;-79
2022/07/19 01:48:05;;;;;;;6.00;4.27;;;26.20;47.90;;;;;;5024675;28;20584;-79
2022/07/19 01:50:31;;;;;;;4.30;3.90;;;26.20;47.70;;;;;;5029423;28;20185;-79
2022/07/19 01:52:56;;;;;;;4.33;3.93;;;26.10;47.60;;;;;;5022605;28;20231;-79
2022/07/19 01:55:22;;;;;;;4.93;4.17;;;26.10;47.50;;;;;;5022927;28;20193;-79
2022/07/19 01:57:49;;;;;;;6.03;4.40;;;26.10;47.60;;;;;;5026366;28;20188;-78
2022/07/19 02:00:15;;;;;;;4.57;4.17;;;26.10;47.80;;;;;;5020483;28;20188;-78
2022/07/19 02:02:40;;;;;;;5.00;4.50;;;26.10;47.70;;;;;;5025486;28;21254;-78
2022/07/19 02:05:06;;;;;;;4.53;4.13;;;26.00;47.70;;;;;;5026588;28;20207;-77
2022/07/19 02:07:32;;;;;;;4.77;4.27;;;26.00;47.50;;;;;;5017266;28;20714;-78
2022/07/19 02:09:58;;;;;;;4.47;4.07;;;26.00;47.60;;;;;;5022066;28;20446;-78
2022/07/19 02:12:24;;;;;;;5.00;4.13;;;26.00;47.50;;;;;;5023766;28;20284;-77
2022/07/19 02:14:49;;;;;;;5.27;4.00;;;26.00;47.30;;;;;;5025798;28;20299;-77
2022/07/19 02:17:15;;;;;;;4.77;4.20;;;25.90;47.40;;;;;;5025685;28;20522;-77
2022/07/19 02:19:40;;;;;;;4.63;4.10;;;25.90;47.70;;;;;;5016942;28;20566;-78
2022/07/19 02:22:06;;;;;;;6.53;4.60;;;25.90;47.60;;;;;;5025267;28;20201;-78
2022/07/19 02:24:32;;;;;;;4.73;3.97;;;25.90;47.50;;;;;;5026058;28;20673;-77
2022/07/19 02:26:57;;;;;;;4.33;3.93;;;25.80;47.60;;;;;;5019691;28;20196;-77
2022/07/19 02:29:23;;;;;;;4.37;3.70;;;25.80;47.50;;;;;;5017671;28;20789;-78
2022/07/19 02:31:48;;;;;;;4.63;4.23;;;25.80;47.40;;;;;;5022906;28;20200;-77
2022/07/19 02:34:14;;;;;;;7.03;4.53;;;25.80;47.40;;;;;;5025243;28;21735;-78
2022/07/19 02:36:40;;;;;;;4.90;4.50;;;25.80;47.60;;;;;;5026462;28;20177;-77
2022/07/19 02:39:05;;;;;;;4.50;4.10;;;25.70;47.40;;;;;;5026773;28;20184;-77
2022/07/19 02:41:31;;;;;;;5.00;4.00;;;25.70;47.70;;;;;;5018503;28;20205;-78
2022/07/19 02:43:57;;;;;;;6.60;4.67;;;25.60;47.20;;;;;;5027388;28;20580;-78
2022/07/19 02:46:22;;;;;;;4.37;3.97;;;25.60;47.40;;;;;;5026842;28;20423;-78
2022/07/19 02:48:48;;;;;;;4.43;4.03;;;25.70;47.50;;;;;;5018260;28;20208;-78
2022/07/19 02:51:14;;;;;;;6.10;3.93;;;25.70;47.50;;;;;;5013945;28;20208;-77
2022/07/19 02:53:40;;;;;;;5.10;4.00;;;25.70;47.40;;;;;;5028315;28;20184;-78
2022/07/19 02:56:05;;;;;;;6.30;4.53;;;25.70;47.40;;;;;;5023850;28;20173;-78
2022/07/19 02:58:31;;;;;;;5.30;3.77;;;25.60;47.20;;;;;;5025016;28;21276;-79
2022/07/19 03:00:57;;;;;;;5.63;5.00;;;25.60;47.10;;;;;;5029716;28;20172;-79
2022/07/19 03:06:07;;;;;;;8.50;4.33;;;25.60;47.10;;;;;;5033811;28;20246;-78
2022/07/19 03:08:33;;;;;;;4.43;4.13;;;25.60;47.80;;;;;;5021996;28;21064;-77
2022/07/19 03:10:58;;;;;;;4.70;4.30;;;25.60;47.20;;;;;;5018525;28;20200;-77
2022/07/19 03:13:24;;;;;;;5.57;4.23;;;25.60;47.30;;;;;;5024678;28;20202;-77
2022/07/19 03:15:50;;;;;;;4.80;4.40;;;25.60;47.30;;;;;;5021664;28;20185;-77
2022/07/19 03:18:15;;;;;;;4.37;4.07;;;25.60;47.30;;;;;;5018275;28;20188;-76
2022/07/19 03:20:41;;;;;;;4.70;4.30;;;25.60;47.30;;;;;;5014921;28;20193;-79
2022/07/19 03:23:07;;;;;;;4.57;4.13;;;25.50;47.40;;;;;;5024356;28;20188;-79
2022/07/19 03:25:33;;;;;;;4.43;4.03;;;25.40;47.70;;;;;;5025329;28;20184;-80
2022/07/19 03:27:59;;;;;;;5.73;4.40;;;25.40;47.70;;;;;;5024019;28;20482;-78
2022/07/19 03:30:24;;;;;;;4.60;4.20;;;25.40;48.00;;;;;;5021831;28;20243;-78
2022/07/19 03:32:50;;;;;;;6.07;4.30;;;25.30;48.30;;;;;;5021533;28;20207;-78
2022/07/19 03:35:15;;;;;;;4.50;3.97;;;25.30;48.20;;;;;;5031354;28;20196;-79
2022/07/19 03:37:41;;;;;;;8.83;4.83;;;25.30;48.40;;;;;;5029846;28;20243;-78
2022/07/19 03:40:08;;;;;;;4.50;4.10;;;25.30;48.50;;;;;;5024415;28;20184;-77
2022/07/19 03:42:33;;;;;;;7.83;4.50;;;25.30;48.60;;;;;;5024112;28;20227;-78
2022/07/19 03:44:59;;;;;;;4.83;4.00;;;25.30;48.80;;;;;;5027238;28;20921;-78
2022/07/19 03:47:24;;;;;;;7.63;4.53;;;25.30;48.70;;;;;;5023820;28;20237;-76
2022/07/19 03:49:50;;;;;;;4.83;4.43;;;25.20;48.70;;;;;;5023311;28;20699;-75
2022/07/19 03:52:16;;;;;;;6.87;4.47;;;25.30;48.80;;;;;;5017786;28;20197;-75
2022/07/19 03:54:42;;;;;;;6.03;4.40;;;25.20;49.00;;;;;;5013475;28;20662;-75
2022/07/19 03:57:07;;;;;;;5.13;4.70;;;25.20;49.00;;;;;;5015917;28;20438;-76
2022/07/19 03:59:33;;;;;;;5.20;4.70;;;25.20;49.00;;;;;;5019026;28;20323;-75
2022/07/19 04:01:58;;;;;;;5.10;4.67;;;25.20;48.90;;;;;;5019726;28;20207;-75
2022/07/19 04:04:24;;;;;;;4.90;4.33;;;25.20;49.00;;;;;;5029840;28;20679;-75
2022/07/19 04:06:50;;;;;;;4.50;4.10;;;25.20;49.00;;;;;;5026693;28;20245;-75
2022/07/19 04:09:15;;;;;;;6.13;4.10;;;25.20;49.10;;;;;;5023491;28;20194;-76
2022/07/19 04:11:41;;;;;;;7.43;4.10;;;25.10;49.20;;;;;;5028935;28;20208;-76
2022/07/19 04:14:06;;;;;;;6.10;4.37;;;25.10;49.30;;;;;;5021263;28;20228;-75
2022/07/19 04:16:32;;;;;;;7.73;4.23;;;25.10;49.60;;;;;;5028679;28;20271;-75
2022/07/19 04:18:58;;;;;;;4.90;4.30;;;25.00;49.60;;;;;;5025147;28;20227;-74
2022/07/19 04:21:23;;;;;;;4.80;4.30;;;25.00;49.70;;;;;;5021833;28;20556;-76
2022/07/19 04:23:49;;;;;;;5.23;4.30;;;25.00;50.00;;;;;;5022289;28;20185;-75
2022/07/19 04:26:14;;;;;;;4.30;3.90;;;25.00;50.00;;;;;;5028904;28;20631;-74
2022/07/19 04:28:40;;;;;;;8.93;4.50;;;25.00;50.10;;;;;;5026892;28;20214;-73
2022/07/19 04:31:06;;;;;;;6.27;4.73;;;24.90;50.10;;;;;;5029183;28;20204;-75
2022/07/19 04:33:31;;;;;;;6.33;4.97;;;24.90;50.20;;;;;;5024407;28;20266;-75
2022/07/19 04:35:57;;;;;;;4.97;4.47;;;24.90;50.10;;;;;;5016096;28;20292;-75
2022/07/19 04:38:23;;;;;;;6.43;4.30;;;24.90;50.20;;;;;;5021442;28;20618;-75
2022/07/19 04:40:49;;;;;;;9.13;4.33;;;24.90;50.20;;;;;;5021177;28;20192;-75
2022/07/19 04:43:16;;;;;;;4.90;4.40;;;24.80;50.20;;;;;;5026584;28;20714;-76
2022/07/19 04:45:44;;;;;;;9.87;5.03;;;24.80;50.20;;;;;;5023452;28;20427;-75
2022/07/19 04:48:10;;;;;;;5.60;4.50;;;24.80;50.50;;;;;;5021288;28;20978;-74
2022/07/19 04:50:36;;;;;;;6.07;4.30;;;24.80;50.70;;;;;;5024880;28;20446;-75
2022/07/19 04:53:01;;;;;;;4.87;4.47;;;24.80;50.50;;;;;;5026032;28;20454;-73
2022/07/19 04:55:27;;;;;;;5.57;5.07;;;24.80;50.60;;;;;;5022488;28;20718;-75
2022/07/19 04:57:53;;;;;;;6.30;4.80;;;24.80;50.60;;;;;;5015374;28;20636;-75
2022/07/19 05:00:19;;;;;;;5.97;5.40;;;24.80;50.60;;;;;;5022374;28;20188;-74
2022/07/19 05:02:44;;;;;;;4.43;4.03;;;24.80;50.70;;;;;;5022979;28;20204;-75
2022/07/19 05:05:11;;;;;;;5.70;5.20;;;24.80;50.60;;;;;;5017577;28;20432;-75
2022/07/19 05:07:36;;;;;;;7.80;5.10;;;24.90;50.60;;;;;;5016216;28;20208;-75
2022/07/19 05:10:04;;;;;;;6.27;4.20;;;24.80;50.40;;;;;;5029936;28;20438;-74
2022/07/19 05:12:30;;;;;;;6.13;4.77;;;24.90;50.50;;;;;;5024787;28;20194;-75
2022/07/19 05:14:56;;;;;;;8.30;4.57;;;24.90;50.70;;;;;;5018174;28;20420;-75
2022/07/19 05:17:21;;;;;;;4.70;4.30;;;24.90;50.60;;;;;;5018341;28;20438;-75
2022/07/19 05:19:47;;;;;;;7.43;4.93;;;24.90;50.50;;;;;;5025199;28;20195;-76
2022/07/19 05:22:12;;;;;;;4.93;4.53;;;24.90;51.10;;;;;;5027970;28;20284;-75
2022/07/19 05:24:38;;;;;;;4.73;4.33;;;24.90;50.50;;;;;;5025894;28;20180;-75
2022/07/19 05:27:04;;;;;;;8.97;4.30;;;24.90;50.50;;;;;;5027531;28;20262;-74
2022/07/19 05:29:29;;;;;;;5.50;4.53;;;25.00;50.40;;;;;;5022320;28;20176;-76
2022/07/19 05:31:55;;;;;;;4.60;4.20;;;25.00;50.40;;;;;;5024494;28;20224;-76
2022/07/19 05:34:20;;;;;;;7.30;4.83;;;25.00;50.30;;;;;;5022944;28;20214;-74
2022/07/19 05:36:46;;;;;;;5.53;4.47;;;25.00;50.30;;;;;;5020609;28;20185;-75
2022/07/19 05:39:11;;;;;;;5.53;4.90;;;25.10;50.30;;;;;;5024180;28;20180;-75
2022/07/19 05:41:37;;;;;;;15.00;13.33;;;25.10;50.20;;;;;;5025601;28;20698;-74
2022/07/19 05:44:03;;;;;;;6.33;5.83;;;25.10;50.30;;;;;;5021449;28;20184;-73
2022/07/19 05:46:28;;;;;;;11.43;9.53;;;25.10;50.30;;;;;;5017681;28;20251;-73
2022/07/19 05:48:54;;;;;;;11.87;10.77;;;25.10;50.30;;;;;;5022091;28;20232;-74
2022/07/19 05:51:20;;;;;;;10.60;8.10;;;25.10;50.30;;;;;;5021657;28;20212;-76
2022/07/19 05:53:45;;;;;;;9.83;7.10;;;25.20;50.30;;;;;;5016441;28;20185;-72
2022/07/19 05:56:11;;;;;;;8.10;6.50;;;25.20;50.30;;;;;;5018706;28;20205;-76
2022/07/19 05:58:37;;;;;;;6.47;5.73;;;25.20;50.30;;;;;;5021115;28;20755;-76
2022/07/19 06:01:18;;;;;;;10.17;9.27;;;25.30;50.50;;;;;;5021914;28;20200;-76
2022/07/19 06:03:47;;;;;;;8.30;5.53;;;25.30;50.70;;;;;;5023143;28;20605;-77
2022/07/19 06:06:13;;;;;;;6.23;5.60;;;25.30;50.60;;;;;;5023361;28;20438;-76
2022/07/19 06:08:39;;;;;;;11.17;7.07;;;25.40;50.60;;;;;;5024842;28;20849;-77
2022/07/19 06:11:05;;;;;;;7.97;6.47;;;25.40;50.60;;;;;;5024088;28;20452;-77
2022/07/19 06:13:31;;;;;;;13.40;12.00;;;25.50;50.60;;;;;;5024464;28;20431;-76
2022/07/19 06:15:56;;;;;;;8.10;7.30;;;25.50;51.20;;;;;;5028113;28;20318;-75
2022/07/19 06:18:22;;;;;;;8.60;5.30;;;25.50;51.20;;;;;;5024021;28;20647;-77
2022/07/19 06:20:47;;;;;;;7.60;5.93;;;25.60;50.50;;;;;;5024070;28;20184;-77
2022/07/19 06:23:13;;;;;;;6.27;5.47;;;25.60;50.50;;;;;;5021797;28;20199;-76
2022/07/19 06:25:39;;;;;;;9.77;8.87;;;25.60;50.50;;;;;;5023026;28;20725;-76
2022/07/19 06:28:04;;;;;;;5.57;4.70;;;25.70;50.50;;;;;;5014614;28;20571;-75
2022/07/19 06:30:30;;;;;;;12.47;10.13;;;25.70;50.40;;;;;;5017538;28;20196;-76
2022/07/19 06:32:56;;;;;;;7.03;6.13;;;25.80;50.40;;;;;;5022893;28;20208;-76
2022/07/19 06:35:21;;;;;;;26.53;20.13;;;25.80;50.30;;;;;;5021700;28;20184;-77
2022/07/19 06:37:47;;;;;;;8.83;8.03;;;25.90;50.80;;;;;;5026697;28;20188;-76
2022/07/19 06:40:13;;;;;;;8.07;4.93;;;25.90;50.20;;;;;;5023587;28;20259;-76
2022/07/19 06:42:38;;;;;;;5.87;5.37;;;26.00;50.30;;;;;;5018718;28;20204;-77
2022/07/19 06:45:05;;;;;;;6.63;6.10;;;26.00;50.30;;;;;;5018290;28;20180;-77
2022/07/19 06:47:32;;;;;;;9.07;5.63;;;26.10;50.30;;;;;;5014178;28;20299;-77
2022/07/19 06:49:58;;;;;;;12.10;8.60;;;26.10;50.40;;;;;;5017179;28;20419;-76
2022/07/19 06:52:24;;;;;;;8.43;5.47;;;26.10;50.30;;;;;;5023130;28;20458;-75
2022/07/19 06:54:49;;;;;;;7.90;6.17;;;26.20;50.40;;;;;;5020743;28;20566;-74
2022/07/19 06:57:15;;;;;;;9.83;6.10;;;26.30;50.40;;;;;;5020015;28;20235;-74
2022/07/19 06:59:40;;;;;;;5.40;4.90;;;26.30;50.30;;;;;;5023979;28;20219;-78
2022/07/19 07:02:06;;;;;;;8.43;6.27;;;26.40;50.30;;;;;;5022672;28;20204;-74
2022/07/19 07:04:32;;;;;;;6.90;6.20;;;26.40;50.20;;;;;;5022583;28;20197;-75
2022/07/19 07:06:58;;;;;;;10.97;6.10;;;26.50;50.20;;;;;;5021538;28;21013;-76
2022/07/19 07:09:23;;;;;;;6.70;5.30;;;26.60;50.20;;;;;;5019579;28;20200;-76
2022/07/19 07:11:49;;;;;;;5.10;4.60;;;26.60;50.10;;;;;;5016749;28;20556;-77
2022/07/19 07:14:15;;;;;;;8.03;4.80;;;26.70;50.10;;;;;;5020592;28;20168;-76
2022/07/19 07:16:40;;;;;;;5.40;4.90;;;26.70;50.60;;;;;;5023263;28;20188;-76
2022/07/19 07:19:06;;;;;;;5.97;4.83;;;26.80;50.00;;;;;;5014179;28;20698;-75
2022/07/19 07:21:35;;;;;;;5.33;4.33;;;26.90;49.90;;;;;;5021548;28;20331;-75
2022/07/19 07:24:04;;;;;;;7.07;4.87;;;27.00;49.90;;;;;;5018038;28;20188;-74
2022/07/19 07:26:30;;;;;;;7.57;4.97;;;27.10;49.70;;;;;;5021090;28;20422;-78
2022/07/19 07:28:56;;;;;;;5.17;4.73;;;27.20;49.60;;;;;;5022934;28;20485;-76
2022/07/19 07:31:21;;;;;;;6.60;4.83;;;27.20;49.50;;;;;;5021752;28;20431;-75
2022/07/19 07:33:47;;;;;;;6.00;5.30;;;27.30;49.50;;;;;;5020843;28;20559;-75
2022/07/19 07:36:13;;;;;;;5.40;4.97;;;27.40;50.10;;;;;;5024354;28;20180;-75
2022/07/19 07:38:38;;;;;;;5.83;4.40;;;27.50;49.40;;;;;;5024853;28;20184;-76
2022/07/19 07:41:05;;;;;;;7.00;4.87;;;27.50;49.40;;;;;;5030763;28;20200;-75
2022/07/19 07:43:30;;;;;;;12.40;4.70;;;27.60;49.40;;;;;;5026114;28;20292;-75
2022/07/19 07:45:56;;;;;;;5.53;5.00;;;27.70;49.20;;;;;;5018205;28;20422;-75
2022/07/19 07:48:21;;;;;;;9.13;4.80;;;27.80;49.00;;;;;;5024793;28;20204;-75
2022/07/19 07:50:47;;;;;;;4.90;4.20;;;27.80;49.40;;;;;;5026529;28;20178;-75
2022/07/19 07:53:13;;;;;;;5.20;4.30;;;27.90;48.70;;;;;;5017856;28;20748;-76
2022/07/19 07:55:41;;;;;;;6.17;4.43;;;28.00;48.50;;;;;;5023185;28;20177;-76
2022/07/19 07:58:10;;;;;;;5.83;4.77;;;28.10;48.40;;;;;;5023728;28;20181;-76
2022/07/19 08:00:37;;;;;;;6.00;5.13;;;28.20;48.30;;;;;;5029127;28;20422;-75
2022/07/19 08:03:03;;;;;;;5.23;4.73;;;28.30;48.40;;;;;;5022187;28;20447;-75
2022/07/19 08:05:29;;;;;;;9.37;4.47;;;28.40;48.30;;;;;;5021282;28;20621;-75
2022/07/19 08:07:55;;;;;;;6.03;5.17;;;28.40;48.30;;;;;;5020567;28;20686;-76
2022/07/19 08:10:22;;;;;;;4.50;4.20;;;28.50;48.30;;;;;;5020727;28;20181;-75
2022/07/19 08:12:48;;;;;;;6.07;4.57;;;28.60;48.30;;;;;;5027020;28;20196;-75
2022/07/19 08:15:14;;;;;;;8.30;4.87;;;28.70;48.10;;;;;;5029891;28;20434;-75
2022/07/19 08:17:39;;;;;;;6.93;4.40;;;28.80;48.00;;;;;;5028275;28;20188;-74
2022/07/19 08:20:06;;;;;;;10.10;5.30;;;28.90;47.90;;;;;;5027735;28;20177;-75
2022/07/19 08:22:31;;;;;;;5.80;5.10;;;28.90;47.60;;;;;;5027653;28;20761;-75
2022/07/19 08:24:57;;;;;;;7.10;4.60;;;29.00;47.60;;;;;;5023793;28;20423;-74
2022/07/19 08:27:23;;;;;;;5.60;4.40;;;29.10;47.10;;;;;;5025278;28;20208;-76
2022/07/19 08:29:49;;;;;;;5.03;4.60;;;29.20;46.80;;;;;;5026663;28;20161;-76
2022/07/19 08:32:15;;;;;;;10.40;4.60;;;29.30;46.60;;;;;;5016782;28;20422;-75
2022/07/19 08:34:40;;;;;;;6.77;4.40;;;29.40;46.40;;;;;;5022989;28;20191;-75
2022/07/19 08:37:06;;;;;;;5.97;4.30;;;29.50;46.10;;;;;;5022560;28;20177;-75
2022/07/19 08:39:32;;;;;;;6.23;4.60;;;29.60;46.10;;;;;;5024959;28;20189;-74
2022/07/19 08:41:57;;;;;;;5.40;4.60;;;29.60;46.10;;;;;;5020618;28;20196;-75
2022/07/19 08:44:23;;;;;;;8.13;5.40;;;29.70;46.00;;;;;;5026538;28;20212;-75
2022/07/19 08:46:49;;;;;;;5.10;4.30;;;29.80;45.20;;;;;;5022987;28;20203;-74
2022/07/19 08:49:15;;;;;;;5.73;4.80;;;29.90;44.90;;;;;;5014739;28;20323;-74
2022/07/19 08:51:42;;;;;;;5.33;4.57;;;29.90;44.80;;;;;;5024299;28;20447;-75
2022/07/19 08:54:08;;;;;;;6.40;4.30;;;30.10;44.80;;;;;;5023102;28;20443;-76
2022/07/19 08:59:18;;;;;;;5.00;4.50;;;30.20;44.40;;;;;;5022768;28;20187;-75
2022/07/19 09:01:44;;;;;;;6.73;5.20;;;30.30;44.20;;;;;;5023090;28;20439;-76
2022/07/19 09:04:19;;;;;;;4.73;4.33;;;30.40;44.10;;;;;;5024211;28;20192;-76
2022/07/19 09:06:48;;;;;;;8.00;4.70;;;30.50;44.00;;;;;;5038771;28;20266;-76
2022/07/19 09:09:19;;;;;;;7.83;4.77;;;30.60;43.90;;;;;;5025509;28;20462;-76
2022/07/19 09:11:53;;;;;;;5.20;4.70;;;30.80;43.70;;;;;;5026261;28;20451;-75
2022/07/19 09:14:30;;;;;;;4.97;4.47;;;30.80;43.00;;;;;;5024692;28;20411;-76
2022/07/19 09:17:06;;;;;;;5.00;4.37;;;30.90;42.80;;;;;;5017871;28;20518;-76
2022/07/19 09:19:39;;;;;;;9.50;5.77;;;31.00;43.00;;;;;;5020821;28;20862;-75
2022/07/19 09:22:13;;;;;;;4.70;4.20;;;31.00;42.10;;;;;;5016320;28;20456;-76
2022/07/19 09:24:41;;;;;;;4.97;4.53;;;31.10;41.60;;;;;;5024013;28;20423;-75
2022/07/19 09:27:09;;;;;;;3.90;3.60;;;31.20;41.40;;;;;;5024340;28;20387;-76
2022/07/19 09:29:41;;;;;;;4.93;4.50;;;31.30;39.80;;;;;;5028200;28;20421;-76
2022/07/19 09:32:14;;;;;;;3.83;3.50;;;31.40;38.70;;;;;;5032405;28;20405;-74
2022/07/19 09:34:48;;;;;;;7.87;3.80;;;31.50;38.40;;;;;;5036821;28;20439;-74
2022/07/19 09:37:17;;;;;;;4.93;4.50;;;31.70;37.90;;;;;;5031306;28;20417;-76
2022/07/19 09:39:46;;;;;;;4.43;4.13;;;31.70;38.10;;;;;;5028286;28;20445;-76
2022/07/19 09:42:24;;;;;;;6.83;4.10;;;31.80;38.30;;;;;;5026090;28;20445;-76
2022/07/19 09:45:04;;;;;;;7.37;3.93;;;31.80;38.50;;;;;;5018482;28;20817;-76
2022/07/19 09:47:35;;;;;;;8.43;4.50;;;31.80;38.50;;;;;;5020922;28;20444;-74
2022/07/19 09:50:04;;;;;;;4.77;4.37;;;31.90;39.60;;;;;;5022944;28;20408;-74
2022/07/19 09:52:30;;;;;;;5.20;4.57;;;32.00;40.90;;;;;;5024961;28;20444;-75
2022/07/19 09:54:58;;;;;;;4.37;4.07;;;32.10;40.60;;;;;;5024396;28;20402;-76
2022/07/19 09:57:24;;;;;;;7.97;4.20;;;32.10;39.60;;;;;;5021506;28;20212;-76
2022/07/19 09:59:54;;;;;;;5.63;5.23;;;32.10;40.00;;;;;;5017074;28;21189;-75
2022/07/19 10:02:23;;;;;;;6.30;5.80;;;32.20;39.80;;;;;;5014972;28;20431;-75
2022/07/19 10:04:50;;;;;;;5.87;5.30;;;32.20;39.60;;;;;;5020452;28;20451;-75
2022/07/19 10:07:17;;;;;;;7.60;4.07;;;32.30;39.30;;;;;;5019082;28;21020;-75
2022/07/19 10:09:44;;;;;;;5.73;4.60;;;32.40;39.10;;;;;;5020973;28;20431;-75
2022/07/19 10:12:10;;;;;;;6.43;4.90;;;32.40;39.30;;;;;;5023434;28;21332;-76
2022/07/19 10:14:38;;;;;;;11.07;4.70;;;32.50;39.10;;;;;;5023790;28;20830;-76
2022/07/19 10:17:32;;;;;;;11.87;4.47;;;32.40;39.00;;;;;;5025179;28;20445;-75
2022/07/19 10:19:58;;;;;;;5.33;4.83;;;32.50;39.30;;;;;;5018889;28;20413;-75
2022/07/19 10:22:25;;;;;;;8.53;4.50;;;32.60;39.50;;;;;;5018919;28;20509;-76
2022/07/19 10:25:12;;;;;;;4.63;4.23;;;32.70;39.20;;;;;;5020805;28;20432;-77
2022/07/19 10:27:43;;;;;;;7.03;4.63;;;32.70;39.20;;;;;;5015584;28;20551;-75
2022/07/19 10:30:11;;;;;;;4.07;3.77;;;32.80;39.30;;;;;;5022002;28;20440;-76
2022/07/19 10:32:42;;;;;;;4.93;4.43;;;32.80;39.30;;;;;;5018699;28;20434;-76
2022/07/19 10:35:14;;;;;;;8.20;4.50;;;32.80;39.10;;;;;;5020312;28;20391;-74
2022/07/19 10:37:41;;;;;;;4.57;4.07;;;32.90;38.60;;;;;;5023970;28;20468;-76
2022/07/19 10:40:07;;;;;;;6.10;4.23;;;33.00;37.60;;;;;;5018348;28;20427;-76
2022/07/19 10:42:33;;;;;;;6.53;4.70;;;33.10;36.90;;;;;;5023378;28;20474;-75
2022/07/19 10:45:01;;;;;;;7.07;4.60;;;33.20;37.00;;;;;;5023941;28;20421;-75
2022/07/19 10:47:39;;;;;;;4.63;4.23;;;33.20;37.30;;;;;;5023462;28;20196;-76
2022/07/19 10:50:07;;;;;;;4.93;4.50;;;33.30;37.20;;;;;;5023628;28;20439;-76
2022/07/19 10:52:38;;;;;;;8.80;5.00;;;33.40;36.50;;;;;;5020355;28;21128;-75
2022/07/19 10:55:25;;;;;;;7.87;4.60;;;33.40;36.70;;;;;;5022513;28;20432;-75
2022/07/19 10:57:58;;;;;;;6.63;5.13;;;33.50;36.50;;;;;;5017852;28;21039;-76
2022/07/19 11:00:31;;;;;;;4.33;3.93;;;33.50;36.10;;;;;;5018595;28;20446;-76
2022/07/19 11:03:25;;;;;;;4.90;4.40;;;33.50;36.10;;;;;;5020183;28;20501;-76
2022/07/19 11:05:53;;;;;;;4.80;4.40;;;33.70;36.00;;;;;;5023581;28;20448;-76
2022/07/19 11:08:36;;;;;;;11.03;4.70;;;33.80;35.60;;;;;;5012013;28;20488;-75
2022/07/19 11:11:06;;;;;;;4.73;4.33;;;33.80;35.90;;;;;;5016106;28;20507;-76
2022/07/19 11:13:32;;;;;;;4.87;4.40;;;33.90;35.80;;;;;;5018067;28;20430;-76
2022/07/19 11:16:00;;;;;;;5.23;4.07;;;34.00;35.20;;;;;;5018125;28;20402;-76
2022/07/19 11:18:26;;;;;;;7.13;4.27;;;34.00;34.80;;;;;;5012277;28;20451;-75
2022/07/19 11:20:52;;;;;;;5.23;4.73;;;34.20;34.30;;;;;;5020373;28;21000;-75
2022/07/19 11:23:20;;;;;;;4.53;4.03;;;34.20;34.90;;;;;;5014441;28;20176;-74
2022/07/19 11:25:50;;;;;;;5.20;3.83;;;34.30;35.20;;;;;;5017553;28;20509;-76
2022/07/19 11:28:25;;;;;;;6.30;3.80;;;34.40;35.00;;;;;;5016503;28;20472;-76
2022/07/19 11:30:51;;;;;;;5.53;3.90;;;34.50;35.60;;;;;;5018382;28;20406;-78
2022/07/19 11:33:19;;;;;;;7.00;4.37;;;34.60;35.50;;;;;;5019765;28;20472;-77
2022/07/19 11:36:13;;;;;;;5.40;4.53;;;34.60;35.10;;;;;;5015955;28;20440;-77
2022/07/19 11:38:40;;;;;;;7.27;3.93;;;34.70;34.40;;;;;;5014234;28;20471;-77
2022/07/19 11:41:18;;;;;;;9.10;4.30;;;34.80;34.40;;;;;;5013115;28;20450;-77
2022/07/19 11:43:50;;;;;;;4.97;4.40;;;34.90;34.50;;;;;;5020156;28;20393;-77
2022/07/19 11:46:17;;;;;;;4.83;4.43;;;35.00;34.30;;;;;;5019053;28;20414;-76
2022/07/19 11:48:43;;;;;;;4.80;4.23;;;35.10;34.40;;;;;;5017965;28;20425;-77
2022/07/19 11:51:10;;;;;;;4.33;3.90;;;35.20;34.20;;;;;;5020497;28;20523;-77
2022/07/19 11:53:38;;;;;;;7.93;3.87;;;35.40;34.50;;;;;;5018599;28;20181;-75
2022/07/19 11:56:05;;;;;;;11.60;4.60;;;35.50;34.20;;;;;;5017092;28;20389;-78
2022/07/19 11:58:32;;;;;;;6.23;4.23;;;35.60;33.80;;;;;;5016707;28;21197;-75
2022/07/19 12:01:05;;;;;;;10.80;5.00;;;35.80;33.40;;;;;;5019499;28;20401;-78
2022/07/19 12:03:31;;;;;;;4.90;4.50;;;35.90;33.00;;;;;;5020324;28;20440;-75
2022/07/19 12:06:04;;;;;;;8.93;4.40;;;36.10;32.60;;;;;;5015865;28;20394;-75
2022/07/19 12:08:38;;;;;;;5.70;4.57;;;36.30;33.00;;;;;;5017229;28;20845;-75
2022/07/19 12:11:19;;;;;;;5.03;4.17;;;36.50;33.00;;;;;;5019763;28;20394;-76
2022/07/19 12:13:46;;;;;;;7.67;4.60;;;37.00;32.40;;;;;;5019214;28;20383;-77
2022/07/19 12:16:13;;;;;;;5.20;4.80;;;37.40;31.50;;;;;;5018219;28;20411;-78
2022/07/19 12:18:52;;;;;;;5.30;4.80;;;37.90;31.20;;;;;;5018457;28;20418;-78
2022/07/19 12:21:21;;;;;;;5.37;4.87;;;38.20;30.90;;;;;;5015220;28;20955;-77
2022/07/19 12:24:15;;;;;;;5.30;4.80;;;38.40;30.50;;;;;;5034325;28;20410;-77
2022/07/19 12:26:58;;;;;;;4.70;4.03;;;38.70;30.20;;;;;;5034267;28;20515;-76
2022/07/19 12:29:35;;;;;;;5.23;4.73;;;39.10;30.40;;;;;;5023841;28;20541;-76
2022/07/19 12:32:07;;;;;;;5.20;4.70;;;39.30;29.90;;;;;;5021889;28;20466;-77
2022/07/19 12:34:56;;;;;;;4.83;4.33;;;39.50;29.80;;;;;;5022711;28;20427;-78
2022/07/19 12:37:37;;;;;;;5.53;3.73;;;39.70;29.50;;;;;;5019716;28;20446;-77
2022/07/19 12:40:08;;;;;;;6.83;4.20;;;39.90;29.20;;;;;;5026559;28;20450;-77
2022/07/19 12:42:38;;;;;;;7.87;4.30;;;40.10;29.20;;;;;;5019592;28;20439;-75
2022/07/19 12:45:06;;;;;;;5.10;4.40;;;40.30;29.10;;;;;;5018871;28;21077;-77
2022/07/19 12:47:32;;;;;;;5.20;4.40;;;40.50;29.20;;;;;;5028396;28;20521;-77
2022/07/19 12:49:57;;;;;;;6.20;4.20;;;40.60;28.70;;;;;;5024900;28;21025;-79
2022/07/19 12:52:23;;;;;;;4.73;4.37;;;40.60;28.40;;;;;;5040273;28;20207;-78